Pagrindinis puslapis
METAR-TAF:

METAR-TAF

Oro uostai :

Winter Haven's Gilbert Airport

Winter Haven, Florida, Jungtinės Amerikos Valstijos

platuma: 28-03-38N, ilguma: 081-45-27W, Aukštis: 44 m

Dabartinis oras

Ataskaita buvo paskelbta 17 minutes, ne 22:40 UTC
Vėjas 8 kt iš Pietų/Pietryčių
Temperatūra 31°C
Drėgmė 59%
Slėgis 1014 hPa
Matomumas: 16.1 km
Su prošvaistėmis ne aukštis 4800 ft
Perkūnija kaimynystėje

METAR: KGIF 302240Z AUTO 15008KT 10SM VCTS BKN048 31/22 A2995 RMK AO2 LTG DSNT S AND SW T03060217

Laikas: 18:57 (22:57 UTC)


TAF: trūkstamas

Orai ataskaitas ir orų prognozės (METAR, TAF).

turimą stotys yra geltonos ir raudonos taškus žemėlapyje.

Perkelti pele per norėdami pamatyti stoties vardą.

Tada spustelėkite, norėdami matyti oro stebėjimo ir prognozės.

Norėdami pakeisti žemėlapį: spustelėkite ant žalios mygtukų su juodo kryžiaus žemyn,; žalią mygtuką su brūkšneliu, jei norite nutolinti; arba žalių rodyklių gretimoms žemėlapius.


METAR-TAF: